Route Details

Aircraft Information
Group: North America Fleet
Types: B738, B752, B762, B763
Route Data
Distance: 1287nm
Duration: 4h 00m
Origin METAR: KLAL 010435Z AUTO 00000KT 10SM CLR 18/16 A3020 RMK AO2 T01780158
Dest. METAR: KELP 010451Z 00000KT 10SM SCT240 05/M04 A3007 RMK AO2 SLP165 T00501039
Freight Data
(for Feb 1, 2023)
Load Factor:
44%
Manifested Cargo: 24,383lbs
Financial History
Total Freight: 0lbs
Average Load: 0lbs/flt
Fuel Used: 0lbs
Avg. Fuel Used: 0lbs/flt
Fuel Expense: $0
Avg. Fuel Expense: $0
Avg. Fuel Cost: $0/lbs
Total Gross Income: $0
Pilot Pay: $0
Total Expenses: $0
Total Revenue: $0
Average Revenue: $0

Capitol Logistics 454




KLAL
Lakeland Linder Regional Airport
Lakeland, Florida
KELP
El Paso International Airport
El Paso, Texas

Activity Log

Date Flight Route Aircraft Duration
No Flights Yet